Time;durP1;ratioP1;P1;durP2;ratioP2;P2;SDS_P1;SDS_P2;PMS_P1;PMS_P2;Temp;Humidity;BMP_temperature;BMP_pressure;BME280_temperature;BME280_humidity;BME280_pressure;Samples;Min_cycle;Max_cycle;Signal;HPM_P1;HPM_P2
2023/12/17 00:00:17;;;;;;;27.77;18.00;;;;;;;;;;2090546;28;20369;-61
2023/12/17 00:01:17;;;;;;;28.77;17.23;;;;;;;;;;2090446;28;20089;-61
2023/12/17 00:02:18;;;;;;;29.30;16.55;;;;;;;;;;2090579;28;20040;-62
2023/12/17 00:03:19;;;;;;;26.75;16.67;;;;;;;;;;2090698;28;20073;-61
2023/12/17 00:04:20;;;;;;;25.15;16.83;;;;;;;;;;2090419;28;20099;-61
2023/12/17 00:05:20;;;;;;;25.73;15.30;;;;;;;;;;2090457;28;20417;-61
2023/12/17 00:06:21;;;;;;;25.92;14.40;;;;;;;;;;2090544;28;20033;-59
2023/12/17 00:07:22;;;;;;;28.10;14.30;;;;;;;;;;2090896;28;20139;-59
2023/12/17 00:08:22;;;;;;;23.60;15.18;;;;;;;;;;2090727;28;20040;-59
2023/12/17 00:09:23;;;;;;;22.50;13.57;;;;;;;;;;2090071;28;20057;-59
2023/12/17 00:10:24;;;;;;;24.45;15.48;;;;;;;;;;2081883;28;20034;-61
2023/12/17 00:11:25;;;;;;;21.50;14.23;;;;;;;;;;2089981;28;20048;-62
2023/12/17 00:12:26;;;;;;;22.80;15.18;;;;;;;;;;2090607;28;20473;-61
2023/12/17 00:13:26;;;;;;;22.88;14.10;;;;;;;;;;2090604;28;20051;-62
2023/12/17 00:14:27;;;;;;;22.90;14.05;;;;;;;;;;2090844;28;20028;-62
2023/12/17 00:15:28;;;;;;;24.83;15.00;;;;;;;;;;2090650;28;20052;-61
2023/12/17 00:16:29;;;;;;;22.60;13.90;;;;;;;;;;2090598;28;20045;-61
2023/12/17 00:17:30;;;;;;;21.90;14.13;;;;;;;;;;2090918;28;20409;-61
2023/12/17 00:18:31;;;;;;;20.63;13.43;;;;;;;;;;2090493;28;20044;-61
2023/12/17 00:19:32;;;;;;;22.30;14.13;;;;;;;;;;2089925;28;20025;-61
2023/12/17 00:20:33;;;;;;;20.88;13.40;;;;;;;;;;2090326;28;20033;-61
2023/12/17 00:21:33;;;;;;;21.08;14.07;;;;;;;;;;2090708;28;20032;-61
2023/12/17 00:22:34;;;;;;;20.35;13.88;;;;;;;;;;2090425;28;20035;-61
2023/12/17 00:23:35;;;;;;;22.27;13.98;;;;;;;;;;2089838;28;20037;-61
2023/12/17 00:24:36;;;;;;;23.50;13.65;;;;;;;;;;2090452;28;20060;-62
2023/12/17 00:25:36;;;;;;;20.80;13.30;;;;;;;;;;2090556;28;20068;-61
2023/12/17 00:26:37;;;;;;;20.98;14.05;;;;;;;;;;2090658;28;20029;-61
2023/12/17 00:27:38;;;;;;;19.83;12.82;;;;;;;;;;2090895;28;20064;-61
2023/12/17 00:28:38;;;;;;;19.73;12.75;;;;;;;;;;2090469;28;20373;-61
2023/12/17 00:29:39;;;;;;;24.73;13.48;;;;;;;;;;2090670;28;20108;-61
2023/12/17 00:30:40;;;;;;;22.33;14.43;;;;;;;;;;2090570;28;20045;-61
2023/12/17 00:31:41;;;;;;;22.42;14.25;;;;;;;;;;2090465;28;20060;-62
2023/12/17 00:32:41;;;;;;;19.55;12.75;;;;;;;;;;2090686;28;20120;-62
2023/12/17 00:33:42;;;;;;;23.35;14.23;;;;;;;;;;2090241;28;20049;-61
2023/12/17 00:34:43;;;;;;;20.35;12.73;;;;;;;;;;2090040;28;20055;-62
2023/12/17 00:35:44;;;;;;;20.27;13.52;;;;;;;;;;2089779;28;20045;-62
2023/12/17 00:36:44;;;;;;;22.73;13.57;;;;;;;;;;2090664;28;20076;-61
2023/12/17 00:37:45;;;;;;;20.35;13.32;;;;;;;;;;2090359;28;20041;-61
2023/12/17 00:38:46;;;;;;;20.85;13.23;;;;;;;;;;2090397;28;20055;-61
2023/12/17 00:39:46;;;;;;;20.73;13.40;;;;;;;;;;2090482;28;20477;-62
2023/12/17 00:40:47;;;;;;;21.05;13.10;;;;;;;;;;2090367;28;20044;-61
2023/12/17 00:41:48;;;;;;;23.80;13.60;;;;;;;;;;2090361;28;20028;-60
2023/12/17 00:42:48;;;;;;;21.83;13.95;;;;;;;;;;2090251;28;20048;-60
2023/12/17 00:43:49;;;;;;;21.85;13.73;;;;;;;;;;2090317;28;20041;-59
2023/12/17 00:44:50;;;;;;;23.33;13.68;;;;;;;;;;2090393;28;20124;-61
2023/12/17 00:45:51;;;;;;;21.23;13.43;;;;;;;;;;2090343;28;20052;-60
2023/12/17 00:46:52;;;;;;;24.25;13.15;;;;;;;;;;2090434;28;20485;-59
2023/12/17 00:47:52;;;;;;;20.48;13.73;;;;;;;;;;2090250;28;20588;-59
2023/12/17 00:48:53;;;;;;;19.45;12.93;;;;;;;;;;2090319;28;20049;-59
2023/12/17 00:49:54;;;;;;;22.65;14.98;;;;;;;;;;2090274;28;20056;-60
2023/12/17 00:50:54;;;;;;;23.85;13.85;;;;;;;;;;2090498;28;20064;-60
2023/12/17 00:51:55;;;;;;;22.98;14.07;;;;;;;;;;2090275;28;20045;-62
2023/12/17 00:52:56;;;;;;;23.77;14.40;;;;;;;;;;2090453;28;20039;-60
2023/12/17 00:53:56;;;;;;;18.98;12.68;;;;;;;;;;2090389;28;20405;-60
2023/12/17 00:54:57;;;;;;;22.02;12.60;;;;;;;;;;2090440;28;20048;-62
2023/12/17 00:55:58;;;;;;;19.88;12.20;;;;;;;;;;2090280;28;20032;-62
2023/12/17 00:56:59;;;;;;;19.75;12.55;;;;;;;;;;2090236;28;20041;-62
2023/12/17 00:57:59;;;;;;;22.15;13.23;;;;;;;;;;2090353;28;20045;-62
2023/12/17 00:59:00;;;;;;;21.17;12.88;;;;;;;;;;2090413;28;20051;-62
2023/12/17 01:00:01;;;;;;;20.50;13.32;;;;;;;;;;2090245;28;20045;-63
2023/12/17 01:01:02;;;;;;;22.13;13.82;;;;;;;;;;2090004;28;20068;-61
2023/12/17 01:02:02;;;;;;;20.50;13.35;;;;;;;;;;2090228;28;20485;-61
2023/12/17 01:03:03;;;;;;;19.70;13.00;;;;;;;;;;2090224;28;20496;-62
2023/12/17 01:04:04;;;;;;;23.27;14.05;;;;;;;;;;2090366;28;20053;-62
2023/12/17 01:05:05;;;;;;;24.10;14.65;;;;;;;;;;2090464;28;20036;-62
2023/12/17 01:06:06;;;;;;;21.67;14.00;;;;;;;;;;2090518;28;20025;-61
2023/12/17 01:07:07;;;;;;;21.00;13.27;;;;;;;;;;2090202;28;20041;-61
2023/12/17 01:08:08;;;;;;;22.25;14.70;;;;;;;;;;2090656;28;20041;-62
2023/12/17 01:09:10;;;;;;;18.90;13.00;;;;;;;;;;2090248;28;20048;-61
2023/12/17 01:10:10;;;;;;;22.30;13.88;;;;;;;;;;2090392;28;20033;-61
2023/12/17 01:11:11;;;;;;;23.63;14.60;;;;;;;;;;2090428;28;20048;-61
2023/12/17 01:12:12;;;;;;;21.90;14.10;;;;;;;;;;2090168;28;20500;-61
2023/12/17 01:13:13;;;;;;;23.48;14.00;;;;;;;;;;2090196;28;20025;-61
2023/12/17 01:14:13;;;;;;;23.55;13.77;;;;;;;;;;2090345;28;20048;-61
2023/12/17 01:15:14;;;;;;;24.13;14.98;;;;;;;;;;2090212;28;20064;-62
2023/12/17 01:16:15;;;;;;;27.90;14.10;;;;;;;;;;2090168;28;20040;-61
2023/12/17 01:17:15;;;;;;;22.13;14.82;;;;;;;;;;2090205;28;20045;-61
2023/12/17 01:18:16;;;;;;;23.63;14.18;;;;;;;;;;2089433;28;20079;-62
2023/12/17 01:19:17;;;;;;;24.65;14.52;;;;;;;;;;2089825;28;20064;-62
2023/12/17 01:20:18;;;;;;;23.65;14.02;;;;;;;;;;2089884;28;20374;-61
2023/12/17 01:21:18;;;;;;;21.77;14.23;;;;;;;;;;2090252;28;20041;-61
2023/12/17 01:22:19;;;;;;;23.45;13.00;;;;;;;;;;2090356;28;20016;-60
2023/12/17 01:23:20;;;;;;;21.65;13.57;;;;;;;;;;2090224;28;20036;-60
2023/12/17 01:24:20;;;;;;;24.23;15.50;;;;;;;;;;2090184;28;20071;-61
2023/12/17 01:25:21;;;;;;;22.35;14.02;;;;;;;;;;2090219;28;20037;-61
2023/12/17 01:26:26;;;;;;;21.95;14.27;;;;;;;;;;2090214;28;20051;-61
2023/12/17 01:27:27;;;;;;;24.05;14.75;;;;;;;;;;2090182;28;20032;-62
2023/12/17 01:28:27;;;;;;;23.17;13.80;;;;;;;;;;2090187;28;20507;-61
2023/12/17 01:29:28;;;;;;;21.95;14.73;;;;;;;;;;2090295;28;20037;-60
2023/12/17 01:30:29;;;;;;;22.17;14.05;;;;;;;;;;2090135;28;20477;-61
2023/12/17 01:31:30;;;;;;;26.95;15.50;;;;;;;;;;2090473;28;20033;-61
2023/12/17 01:32:31;;;;;;;23.42;14.20;;;;;;;;;;2090142;28;20036;-61
2023/12/17 01:33:32;;;;;;;22.45;14.30;;;;;;;;;;2090305;28;20029;-61
2023/12/17 01:34:32;;;;;;;21.58;14.63;;;;;;;;;;2090789;28;20072;-61
2023/12/17 01:35:33;;;;;;;23.73;14.20;;;;;;;;;;2091863;28;20072;-61
2023/12/17 01:36:34;;;;;;;21.55;14.48;;;;;;;;;;2091928;28;20401;-61
2023/12/17 01:37:34;;;;;;;22.33;13.98;;;;;;;;;;2091977;28;20040;-61
2023/12/17 01:38:35;;;;;;;24.00;13.98;;;;;;;;;;2091789;28;20037;-61
2023/12/17 01:39:36;;;;;;;22.98;13.75;;;;;;;;;;2091837;28;20044;-61
2023/12/17 01:40:39;;;;;;;22.88;14.95;;;;;;;;;;2092095;28;20484;-60
2023/12/17 01:41:39;;;;;;;24.77;14.45;;;;;;;;;;2092066;28;20036;-61
2023/12/17 01:42:40;;;;;;;23.30;14.85;;;;;;;;;;2092104;28;20036;-61
2023/12/17 01:43:41;;;;;;;24.27;14.57;;;;;;;;;;2091966;28;20029;-61
2023/12/17 01:44:42;;;;;;;22.75;14.35;;;;;;;;;;2091754;28;20361;-62
2023/12/17 01:45:42;;;;;;;24.67;15.55;;;;;;;;;;2091504;28;20040;-61
2023/12/17 01:46:43;;;;;;;23.25;13.20;;;;;;;;;;2092069;28;20029;-61
2023/12/17 01:47:44;;;;;;;29.55;15.40;;;;;;;;;;2091862;28;20053;-61
2023/12/17 01:48:45;;;;;;;25.33;14.35;;;;;;;;;;2092182;28;20382;-60
2023/12/17 01:49:45;;;;;;;21.60;14.27;;;;;;;;;;2092452;28;20473;-61
2023/12/17 01:50:46;;;;;;;22.10;14.60;;;;;;;;;;2092446;28;20530;-61
2023/12/17 01:51:47;;;;;;;21.98;14.32;;;;;;;;;;2092254;28;20037;-62
2023/12/17 01:52:47;;;;;;;22.13;13.43;;;;;;;;;;2091934;28;20052;-61
2023/12/17 01:53:48;;;;;;;23.08;14.77;;;;;;;;;;2092241;28;20392;-60
2023/12/17 01:54:49;;;;;;;22.23;13.82;;;;;;;;;;2092027;28;20040;-60
2023/12/17 01:55:50;;;;;;;22.95;14.38;;;;;;;;;;2091784;28;20033;-61
2023/12/17 01:56:51;;;;;;;20.58;13.77;;;;;;;;;;2091734;28;20040;-62
2023/12/17 01:57:51;;;;;;;23.95;14.00;;;;;;;;;;2091358;28;20496;-61
2023/12/17 01:58:52;;;;;;;27.02;15.18;;;;;;;;;;2091210;28;20041;-61
2023/12/17 01:59:53;;;;;;;21.33;13.52;;;;;;;;;;2091620;28;20117;-60
2023/12/17 02:00:54;;;;;;;25.08;15.43;;;;;;;;;;2091464;28;20029;-61
2023/12/17 02:01:54;;;;;;;23.33;14.07;;;;;;;;;;2091949;28;20045;-62
2023/12/17 02:02:55;;;;;;;21.75;14.00;;;;;;;;;;2090683;28;20509;-61
2023/12/17 02:03:57;;;;;;;23.15;13.52;;;;;;;;;;2090984;28;20392;-62
2023/12/17 02:04:58;;;;;;;23.63;15.25;;;;;;;;;;2098762;28;20067;-62
2023/12/17 02:06:00;;;;;;;24.65;15.13;;;;;;;;;;2099485;28;20032;-62
2023/12/17 02:07:01;;;;;;;25.20;15.55;;;;;;;;;;2091546;28;20068;-61
2023/12/17 02:08:02;;;;;;;24.38;15.60;;;;;;;;;;2091606;28;20051;-62
2023/12/17 02:09:03;;;;;;;23.17;14.93;;;;;;;;;;2091762;28;20048;-62
2023/12/17 02:10:04;;;;;;;24.25;15.20;;;;;;;;;;2091945;28;20378;-62
2023/12/17 02:11:05;;;;;;;23.73;14.85;;;;;;;;;;2091755;28;20036;-61
2023/12/17 02:12:06;;;;;;;25.20;14.95;;;;;;;;;;2091483;28;20045;-63
2023/12/17 02:13:09;;;;;;;23.15;14.27;;;;;;;;;;2091529;28;20479;-62
2023/12/17 02:14:10;;;;;;;25.00;14.82;;;;;;;;;;2091317;28;20052;-62
2023/12/17 02:15:11;;;;;;;21.85;14.27;;;;;;;;;;2091249;28;20045;-62
2023/12/17 02:16:13;;;;;;;24.50;14.88;;;;;;;;;;2091468;28;20052;-62
2023/12/17 02:17:14;;;;;;;26.40;15.80;;;;;;;;;;2091207;28;20057;-62
2023/12/17 02:18:14;;;;;;;27.10;16.02;;;;;;;;;;2091447;28;20051;-62
2023/12/17 02:19:15;;;;;;;22.45;15.00;;;;;;;;;;2091399;28;20407;-62
2023/12/17 02:20:16;;;;;;;28.38;17.27;;;;;;;;;;2091310;28;20033;-60
2023/12/17 02:21:16;;;;;;;26.33;15.15;;;;;;;;;;2091639;28;20024;-61
2023/12/17 02:22:17;;;;;;;24.52;14.60;;;;;;;;;;2091164;28;20025;-61
2023/12/17 02:23:18;;;;;;;27.15;15.73;;;;;;;;;;2091339;28;20036;-62
2023/12/17 02:24:19;;;;;;;23.90;16.05;;;;;;;;;;2091047;28;20185;-62
2023/12/17 02:25:19;;;;;;;25.88;16.00;;;;;;;;;;2090801;28;20563;-61
2023/12/17 02:26:20;;;;;;;27.00;15.88;;;;;;;;;;2091041;28;20432;-62
2023/12/17 02:27:21;;;;;;;26.05;15.93;;;;;;;;;;2091255;28;20556;-61
2023/12/17 02:28:22;;;;;;;23.20;15.07;;;;;;;;;;2091242;28;20028;-61
2023/12/17 02:29:23;;;;;;;26.52;15.57;;;;;;;;;;2091371;28;20389;-61
2023/12/17 02:30:24;;;;;;;25.17;15.48;;;;;;;;;;2091560;28;20523;-61
2023/12/17 02:31:24;;;;;;;24.05;14.30;;;;;;;;;;2091407;28;20049;-61
2023/12/17 02:32:25;;;;;;;24.95;14.35;;;;;;;;;;2091458;28;20048;-61
2023/12/17 02:33:26;;;;;;;21.42;12.70;;;;;;;;;;2091325;28;20036;-62
2023/12/17 02:34:27;;;;;;;24.52;15.15;;;;;;;;;;2091430;28;20381;-61
2023/12/17 02:35:27;;;;;;;26.00;15.90;;;;;;;;;;2091569;28;20457;-62
2023/12/17 02:36:28;;;;;;;20.80;13.55;;;;;;;;;;2091396;28;20044;-61
2023/12/17 02:37:29;;;;;;;22.08;14.48;;;;;;;;;;2091377;28;20033;-62
2023/12/17 02:38:30;;;;;;;23.05;14.77;;;;;;;;;;2091348;28;20033;-62
2023/12/17 02:39:31;;;;;;;23.60;14.90;;;;;;;;;;2091513;28;20071;-61
2023/12/17 02:40:31;;;;;;;26.52;15.35;;;;;;;;;;2090934;28;20037;-61
2023/12/17 02:41:32;;;;;;;24.73;14.50;;;;;;;;;;2091346;28;20099;-61
2023/12/17 02:42:33;;;;;;;25.05;15.32;;;;;;;;;;2091278;28;20393;-62
2023/12/17 02:43:33;;;;;;;22.90;13.70;;;;;;;;;;2091292;28;20021;-64
2023/12/17 02:44:34;;;;;;;25.88;15.25;;;;;;;;;;2091330;28;20084;-61
2023/12/17 02:45:35;;;;;;;21.50;14.27;;;;;;;;;;2091280;28;20055;-61
2023/12/17 02:46:36;;;;;;;23.92;14.77;;;;;;;;;;2090815;28;20057;-61
2023/12/17 02:47:36;;;;;;;23.05;13.57;;;;;;;;;;2091272;28;20025;-61
2023/12/17 02:48:39;;;;;;;21.70;13.45;;;;;;;;;;2091211;28;20072;-61
2023/12/17 02:49:40;;;;;;;21.95;13.93;;;;;;;;;;2091442;28;20044;-61
2023/12/17 02:50:41;;;;;;;21.30;12.75;;;;;;;;;;2090321;28;20052;-61
2023/12/17 02:51:42;;;;;;;21.05;13.77;;;;;;;;;;2082158;28;20049;-61
2023/12/17 02:52:43;;;;;;;25.08;14.27;;;;;;;;;;2090559;28;20116;-61
2023/12/17 02:53:43;;;;;;;25.20;14.80;;;;;;;;;;2091315;28;20052;-61
2023/12/17 02:54:44;;;;;;;27.65;15.48;;;;;;;;;;2091553;28;20029;-61
2023/12/17 02:55:45;;;;;;;24.02;14.50;;;;;;;;;;2091162;28;20057;-61
2023/12/17 02:56:46;;;;;;;24.38;15.00;;;;;;;;;;2091437;28;20066;-61
2023/12/17 02:57:46;;;;;;;24.27;14.43;;;;;;;;;;2091189;28;20041;-62
2023/12/17 02:58:47;;;;;;;24.80;15.27;;;;;;;;;;2091124;28;20060;-61
2023/12/17 02:59:48;;;;;;;23.30;14.20;;;;;;;;;;2091076;28;20045;-61
2023/12/17 03:00:49;;;;;;;22.25;14.82;;;;;;;;;;2090853;28;20045;-61
2023/12/17 03:01:50;;;;;;;27.27;15.30;;;;;;;;;;2091220;28;20429;-61
2023/12/17 03:02:51;;;;;;;24.20;14.00;;;;;;;;;;2091082;28;20029;-61
2023/12/17 03:03:52;;;;;;;24.38;14.88;;;;;;;;;;2090844;28;20045;-60
2023/12/17 03:04:53;;;;;;;25.92;16.05;;;;;;;;;;2091107;28;20052;-61
2023/12/17 03:05:53;;;;;;;24.83;14.60;;;;;;;;;;2091203;28;20041;-62
2023/12/17 03:06:54;;;;;;;25.23;14.50;;;;;;;;;;2091429;28;20514;-61
2023/12/17 03:07:55;;;;;;;23.42;14.18;;;;;;;;;;2091136;28;20543;-61
2023/12/17 03:08:55;;;;;;;23.75;14.00;;;;;;;;;;2091261;28;20473;-61
2023/12/17 03:09:56;;;;;;;23.95;14.18;;;;;;;;;;2091080;28;20064;-61
2023/12/17 03:10:57;;;;;;;24.25;14.32;;;;;;;;;;2091356;28;20048;-61
2023/12/17 03:11:58;;;;;;;22.05;13.60;;;;;;;;;;2091529;28;20037;-61
2023/12/17 03:12:58;;;;;;;21.52;13.07;;;;;;;;;;2091515;28;20047;-60
2023/12/17 03:13:59;;;;;;;24.45;14.43;;;;;;;;;;2091033;28;20029;-61
2023/12/17 03:15:00;;;;;;;22.17;12.93;;;;;;;;;;2090758;28;20037;-61
2023/12/17 03:16:00;;;;;;;23.00;13.60;;;;;;;;;;2090422;28;20044;-61
2023/12/17 03:17:01;;;;;;;20.40;13.02;;;;;;;;;;2090769;28;20045;-61
2023/12/17 03:18:03;;;;;;;21.00;12.82;;;;;;;;;;2090356;28;20366;-61
2023/12/17 03:19:04;;;;;;;20.52;13.63;;;;;;;;;;2090771;28;20053;-61
2023/12/17 03:20:05;;;;;;;20.95;12.57;;;;;;;;;;2090979;28;20492;-61
2023/12/17 03:21:06;;;;;;;23.33;12.48;;;;;;;;;;2091039;28;20044;-61
2023/12/17 03:22:06;;;;;;;22.27;13.25;;;;;;;;;;2091258;28;20033;-61
2023/12/17 03:23:07;;;;;;;20.92;13.70;;;;;;;;;;2091187;28;20397;-61
2023/12/17 03:24:08;;;;;;;19.42;11.95;;;;;;;;;;2091151;28;20078;-61
2023/12/17 03:25:09;;;;;;;21.80;12.40;;;;;;;;;;2091056;28;20404;-61
2023/12/17 03:26:09;;;;;;;19.77;13.20;;;;;;;;;;2090982;28;20029;-61
2023/12/17 03:27:10;;;;;;;20.10;12.48;;;;;;;;;;2091146;28;20021;-61
2023/12/17 03:28:11;;;;;;;19.10;12.63;;;;;;;;;;2091229;28;20044;-61
2023/12/17 03:29:11;;;;;;;21.42;12.18;;;;;;;;;;2091269;28;20041;-61
2023/12/17 03:30:12;;;;;;;21.00;12.57;;;;;;;;;;2091022;28;20060;-61
2023/12/17 03:31:16;;;;;;;20.08;12.93;;;;;;;;;;2090903;28;20388;-61
2023/12/17 03:32:17;;;;;;;20.42;12.35;;;;;;;;;;2090931;28;20472;-62
2023/12/17 03:33:18;;;;;;;19.00;12.40;;;;;;;;;;2091158;28;20025;-61
2023/12/17 03:34:18;;;;;;;21.23;12.95;;;;;;;;;;2090902;28;20056;-61
2023/12/17 03:35:19;;;;;;;19.95;12.45;;;;;;;;;;2090859;28;20033;-61
2023/12/17 03:36:20;;;;;;;19.23;12.48;;;;;;;;;;2091188;28;20067;-61
2023/12/17 03:37:20;;;;;;;21.17;13.45;;;;;;;;;;2091049;28;20029;-61
2023/12/17 03:38:21;;;;;;;19.60;12.27;;;;;;;;;;2090963;28;20432;-62
2023/12/17 03:39:22;;;;;;;22.27;13.55;;;;;;;;;;2090960;28;20033;-61
2023/12/17 03:40:23;;;;;;;21.23;12.75;;;;;;;;;;2090548;28;20048;-62
2023/12/17 03:41:24;;;;;;;18.90;12.30;;;;;;;;;;2090920;28;20056;-61
2023/12/17 03:42:25;;;;;;;22.15;13.30;;;;;;;;;;2090792;28;20029;-61
2023/12/17 03:43:25;;;;;;;25.65;13.32;;;;;;;;;;2090815;28;20036;-61
2023/12/17 03:44:26;;;;;;;24.27;14.25;;;;;;;;;;2090800;28;20044;-61
2023/12/17 03:45:27;;;;;;;22.23;13.10;;;;;;;;;;2089928;28;20037;-61
2023/12/17 03:46:27;;;;;;;23.05;12.57;;;;;;;;;;2090029;28;20044;-61
2023/12/17 03:47:28;;;;;;;23.15;12.80;;;;;;;;;;2090826;28;20033;-61
2023/12/17 03:48:29;;;;;;;21.42;12.85;;;;;;;;;;2090757;28;20388;-62
2023/12/17 03:49:30;;;;;;;20.67;12.27;;;;;;;;;;2090777;28;20044;-61
2023/12/17 03:50:31;;;;;;;21.42;12.25;;;;;;;;;;2090471;28;20052;-61
2023/12/17 03:51:33;;;;;;;22.98;12.75;;;;;;;;;;2091090;28;20052;-61
2023/12/17 03:52:33;;;;;;;20.05;13.30;;;;;;;;;;2090739;28;20094;-61
2023/12/17 03:53:34;;;;;;;22.48;13.18;;;;;;;;;;2090792;28;20052;-61
2023/12/17 03:54:35;;;;;;;25.20;13.85;;;;;;;;;;2090819;28;20041;-60
2023/12/17 03:55:38;;;;;;;22.05;13.60;;;;;;;;;;2090899;28;20040;-61
2023/12/17 03:56:44;;;;;;;23.20;13.30;;;;;;;;;;2090671;28;20056;-61
2023/12/17 03:57:45;;;;;;;22.27;13.75;;;;;;;;;;2090757;28;20049;-61
2023/12/17 03:58:46;;;;;;;19.13;12.50;;;;;;;;;;2091073;28;20477;-61
2023/12/17 03:59:47;;;;;;;22.42;13.40;;;;;;;;;;2090594;28;20048;-61
2023/12/17 04:00:47;;;;;;;21.67;12.68;;;;;;;;;;2090541;28;20044;-62
2023/12/17 04:01:48;;;;;;;23.17;13.25;;;;;;;;;;2091101;28;20492;-62
2023/12/17 04:02:49;;;;;;;23.88;13.52;;;;;;;;;;2090823;28;20026;-60
2023/12/17 04:03:50;;;;;;;22.30;13.27;;;;;;;;;;2090643;28;20033;-61
2023/12/17 04:04:51;;;;;;;22.23;13.32;;;;;;;;;;2090658;28;20041;-61
2023/12/17 04:05:51;;;;;;;24.27;13.65;;;;;;;;;;2090685;28;20120;-61
2023/12/17 04:06:52;;;;;;;19.77;12.82;;;;;;;;;;2090903;28;20037;-61
2023/12/17 04:07:53;;;;;;;20.23;11.82;;;;;;;;;;2090859;28;20021;-61
2023/12/17 04:08:54;;;;;;;20.40;12.50;;;;;;;;;;2090594;28;20162;-61
2023/12/17 04:09:55;;;;;;;21.25;13.30;;;;;;;;;;2090277;28;20041;-61
2023/12/17 04:10:55;;;;;;;22.52;12.93;;;;;;;;;;2090607;28;20060;-61
2023/12/17 04:11:56;;;;;;;20.52;12.07;;;;;;;;;;2090598;28;20405;-61
2023/12/17 04:12:57;;;;;;;22.05;13.57;;;;;;;;;;2090551;28;20052;-61
2023/12/17 04:13:57;;;;;;;21.85;12.40;;;;;;;;;;2090658;28;20044;-61
2023/12/17 04:14:58;;;;;;;28.10;13.38;;;;;;;;;;2090564;28;20028;-61
2023/12/17 04:15:59;;;;;;;21.08;12.32;;;;;;;;;;2090412;28;20548;-61
2023/12/17 04:17:00;;;;;;;20.73;13.18;;;;;;;;;;2090746;28;20381;-61
2023/12/17 04:18:00;;;;;;;21.38;12.80;;;;;;;;;;2090646;28;20068;-61
2023/12/17 04:19:02;;;;;;;22.80;13.07;;;;;;;;;;2089777;28;20045;-60
2023/12/17 04:20:03;;;;;;;24.10;12.77;;;;;;;;;;2081774;28;20032;-62
2023/12/17 04:21:04;;;;;;;23.77;13.05;;;;;;;;;;2089992;28;20466;-62
2023/12/17 04:22:05;;;;;;;21.25;13.50;;;;;;;;;;2090616;28;20452;-61
2023/12/17 04:23:06;;;;;;;20.67;12.93;;;;;;;;;;2090560;28;20036;-62
2023/12/17 04:24:06;;;;;;;20.63;12.98;;;;;;;;;;2089859;28;20049;-62
2023/12/17 04:25:08;;;;;;;22.15;14.55;;;;;;;;;;2089931;28;20056;-62
2023/12/17 04:26:10;;;;;;;21.13;12.68;;;;;;;;;;2090505;28;20044;-61
2023/12/17 04:27:10;;;;;;;21.20;12.52;;;;;;;;;;2090168;28;20029;-62
2023/12/17 04:28:11;;;;;;;19.33;12.50;;;;;;;;;;2090213;28;20461;-62
2023/12/17 04:29:12;;;;;;;21.48;12.80;;;;;;;;;;2090699;28;20510;-61
2023/12/17 04:30:13;;;;;;;20.25;14.00;;;;;;;;;;2090486;28;20401;-61
2023/12/17 04:31:13;;;;;;;20.83;12.18;;;;;;;;;;2090201;28;20044;-62
2023/12/17 04:32:14;;;;;;;19.48;12.82;;;;;;;;;;2090613;28;20428;-62
2023/12/17 04:33:15;;;;;;;20.23;12.35;;;;;;;;;;2090121;28;20549;-62
2023/12/17 04:34:16;;;;;;;20.08;11.25;;;;;;;;;;2090341;28;20028;-61
2023/12/17 04:35:16;;;;;;;21.92;12.48;;;;;;;;;;2090086;28;20091;-61
2023/12/17 04:36:17;;;;;;;20.50;12.32;;;;;;;;;;2090413;28;20477;-62
2023/12/17 04:37:18;;;;;;;18.98;12.02;;;;;;;;;;2090397;28;20047;-61
2023/12/17 04:38:19;;;;;;;18.50;11.77;;;;;;;;;;2090380;28;20041;-61
2023/12/17 04:39:20;;;;;;;19.98;11.32;;;;;;;;;;2090402;28;20029;-61
2023/12/17 04:40:21;;;;;;;18.35;11.40;;;;;;;;;;2089978;28;20083;-61
2023/12/17 04:41:21;;;;;;;18.65;11.40;;;;;;;;;;2090725;28;20033;-61
2023/12/17 04:42:22;;;;;;;19.45;11.20;;;;;;;;;;2090383;28;20029;-61
2023/12/17 04:43:23;;;;;;;18.92;11.50;;;;;;;;;;2090339;28;20078;-61
2023/12/17 04:44:24;;;;;;;20.73;11.15;;;;;;;;;;2090380;28;20029;-61
2023/12/17 04:45:25;;;;;;;19.45;11.25;;;;;;;;;;2090041;28;20044;-62
2023/12/17 04:46:28;;;;;;;19.73;12.40;;;;;;;;;;2090328;28;20409;-61
2023/12/17 04:47:29;;;;;;;20.85;12.18;;;;;;;;;;2090475;28;20029;-61
2023/12/17 04:48:30;;;;;;;18.60;10.75;;;;;;;;;;2089732;28;20068;-62
2023/12/17 04:49:30;;;;;;;17.13;11.15;;;;;;;;;;2089827;28;20021;-62
2023/12/17 04:50:31;;;;;;;15.07;8.32;;;;;;;;;;2090287;28;20033;-61
2023/12/17 04:51:32;;;;;;;19.92;11.32;;;;;;;;;;2088869;28;20127;-61
2023/12/17 04:52:32;;;;;;;18.45;10.77;;;;;;;;;;2089977;28;20028;-61
2023/12/17 04:53:33;;;;;;;20.15;11.63;;;;;;;;;;2090263;28;20429;-61
2023/12/17 04:54:34;;;;;;;15.10;10.07;;;;;;;;;;2090512;28;20025;-61
2023/12/17 04:55:34;;;;;;;16.92;11.00;;;;;;;;;;2089861;28;20049;-62
2023/12/17 04:56:35;;;;;;;18.92;11.48;;;;;;;;;;2090401;28;20041;-61
2023/12/17 04:57:36;;;;;;;17.65;10.50;;;;;;;;;;2090231;28;20116;-61
2023/12/17 04:58:37;;;;;;;21.05;11.30;;;;;;;;;;2090256;28;20045;-61
2023/12/17 04:59:37;;;;;;;17.63;11.25;;;;;;;;;;2090196;28;20039;-61
2023/12/17 05:00:38;;;;;;;18.45;11.10;;;;;;;;;;2089960;28;20045;-60
2023/12/17 05:01:39;;;;;;;18.85;11.88;;;;;;;;;;2090309;28;20408;-61
2023/12/17 05:02:39;;;;;;;17.33;9.73;;;;;;;;;;2089702;28;20476;-62
2023/12/17 05:03:40;;;;;;;15.30;10.38;;;;;;;;;;2089623;28;20044;-62
2023/12/17 05:04:41;;;;;;;18.15;11.63;;;;;;;;;;2090045;28;20052;-62
2023/12/17 05:05:42;;;;;;;17.52;10.82;;;;;;;;;;2090214;28;20037;-61
2023/12/17 05:06:42;;;;;;;16.35;10.30;;;;;;;;;;2090528;28;20036;-62
2023/12/17 05:07:43;;;;;;;18.00;10.75;;;;;;;;;;2090340;28;20392;-62
2023/12/17 05:08:44;;;;;;;15.45;10.18;;;;;;;;;;2090211;28;20044;-62
2023/12/17 05:09:44;;;;;;;19.02;11.77;;;;;;;;;;2090188;28;20041;-62
2023/12/17 05:10:46;;;;;;;17.50;10.63;;;;;;;;;;2090276;28;20060;-61
2023/12/17 05:11:46;;;;;;;19.17;11.40;;;;;;;;;;2089778;28;20048;-62
2023/12/17 05:12:47;;;;;;;15.88;10.13;;;;;;;;;;2090464;28;20044;-61
2023/12/17 05:13:48;;;;;;;16.70;10.93;;;;;;;;;;2090183;28;20058;-62
2023/12/17 05:14:48;;;;;;;16.10;10.25;;;;;;;;;;2090239;28;20507;-61
2023/12/17 05:15:49;;;;;;;17.45;9.77;;;;;;;;;;2090473;28;20041;-61
2023/12/17 05:16:50;;;;;;;17.45;11.40;;;;;;;;;;2090029;28;20090;-61
2023/12/17 05:17:51;;;;;;;16.45;10.60;;;;;;;;;;2089610;28;20040;-61
2023/12/17 05:18:51;;;;;;;17.45;10.32;;;;;;;;;;2089858;28;20049;-61
2023/12/17 05:19:52;;;;;;;17.13;10.18;;;;;;;;;;2090154;28;20098;-62
2023/12/17 05:20:53;;;;;;;17.70;10.75;;;;;;;;;;2090306;28;20036;-61
2023/12/17 05:21:53;;;;;;;18.17;9.88;;;;;;;;;;2089948;28;20037;-62
2023/12/17 05:22:54;;;;;;;14.82;9.93;;;;;;;;;;2090168;28;20041;-62
2023/12/17 05:23:55;;;;;;;15.35;9.90;;;;;;;;;;2090486;28;20033;-62
2023/12/17 05:24:56;;;;;;;16.52;10.80;;;;;;;;;;2090144;28;20501;-62
2023/12/17 05:25:56;;;;;;;15.85;10.50;;;;;;;;;;2090565;28;20028;-62
2023/12/17 05:26:57;;;;;;;16.75;10.38;;;;;;;;;;2090421;28;20033;-61
2023/12/17 05:27:58;;;;;;;14.65;9.98;;;;;;;;;;2090184;28;20056;-62
2023/12/17 05:28:58;;;;;;;18.90;11.10;;;;;;;;;;2089883;28;20045;-62
2023/12/17 05:29:59;;;;;;;16.73;9.50;;;;;;;;;;2090199;28;20064;-61
2023/12/17 05:31:00;;;;;;;17.73;10.68;;;;;;;;;;2090514;28;20445;-62
2023/12/17 05:32:01;;;;;;;17.27;10.73;;;;;;;;;;2090099;28;20179;-62
2023/12/17 05:33:02;;;;;;;16.58;10.60;;;;;;;;;;2090154;28;20057;-61
2023/12/17 05:34:03;;;;;;;17.95;11.05;;;;;;;;;;2090163;28;20413;-61
2023/12/17 05:35:04;;;;;;;16.67;11.02;;;;;;;;;;2090099;28;20072;-62
2023/12/17 05:36:05;;;;;;;15.00;9.25;;;;;;;;;;2090110;28;20056;-61
2023/12/17 05:37:05;;;;;;;16.88;10.77;;;;;;;;;;2090096;28;20056;-61
2023/12/17 05:38:06;;;;;;;14.93;9.75;;;;;;;;;;2090504;28;20033;-61
2023/12/17 05:39:07;;;;;;;15.38;10.20;;;;;;;;;;2089968;28;20048;-61
2023/12/17 05:40:08;;;;;;;16.63;10.55;;;;;;;;;;2090404;28;20053;-62
2023/12/17 05:41:09;;;;;;;16.08;9.98;;;;;;;;;;2089995;28;20041;-62
2023/12/17 05:42:09;;;;;;;17.20;10.38;;;;;;;;;;2090305;28;20059;-61
2023/12/17 05:43:10;;;;;;;15.25;10.40;;;;;;;;;;2090261;28;20029;-62
2023/12/17 05:44:11;;;;;;;13.30;9.48;;;;;;;;;;2090430;28;20042;-61
2023/12/17 05:45:12;;;;;;;16.33;10.25;;;;;;;;;;2090174;28;20040;-62
2023/12/17 05:46:12;;;;;;;16.02;9.70;;;;;;;;;;2089779;28;20037;-62
2023/12/17 05:47:13;;;;;;;17.25;10.38;;;;;;;;;;2090457;28;20040;-61
2023/12/17 05:48:14;;;;;;;15.68;10.23;;;;;;;;;;2090340;28;20116;-61
2023/12/17 05:49:15;;;;;;;14.25;9.40;;;;;;;;;;2090276;28;20032;-61
2023/12/17 05:50:16;;;;;;;15.75;9.85;;;;;;;;;;2089725;28;20083;-61
2023/12/17 05:51:16;;;;;;;13.38;8.77;;;;;;;;;;2089799;28;20060;-61
2023/12/17 05:52:17;;;;;;;25.42;9.77;;;;;;;;;;2090035;28;20045;-62
2023/12/17 05:53:18;;;;;;;15.20;9.77;;;;;;;;;;2090039;28;20037;-61
2023/12/17 05:54:19;;;;;;;15.77;10.05;;;;;;;;;;2090230;28;20060;-62